Time;durP1;ratioP1;P1;durP2;ratioP2;P2;SDS_P1;SDS_P2;PMS_P1;PMS_P2;Temp;Humidity;BMP_temperature;BMP_pressure;BME280_temperature;BME280_humidity;BME280_pressure;Samples;Min_cycle;Max_cycle;Signal;HPM_P1;HPM_P2
2022/10/11 00:00:41;;;;;;;1.58;0.80;;;10.90;99.90;;;;;;5026221;28;20053;-80
2022/10/11 00:03:06;;;;;;;1.02;0.70;;;10.80;99.90;;;;;;5024467;28;20120;-80
2022/10/11 00:05:33;;;;;;;1.20;1.00;;;10.80;99.90;;;;;;5026418;28;20026;-78
2022/10/11 00:07:58;;;;;;;2.55;1.00;;;10.80;99.90;;;;;;5026067;28;20091;-77
2022/10/11 00:10:24;;;;;;;3.25;1.02;;;10.70;99.90;;;;;;5028091;28;20025;-79
2022/10/11 00:12:51;;;;;;;3.60;1.00;;;10.70;99.90;;;;;;5025258;28;20029;-78
2022/10/11 00:15:19;;;;;;;1.60;1.13;;;10.50;99.90;;;;;;5021692;28;20034;-79
2022/10/11 00:17:45;;;;;;;2.63;0.90;;;10.60;99.90;;;;;;5019769;28;20029;-78
2022/10/11 00:20:11;;;;;;;1.50;0.80;;;10.70;99.90;;;;;;5015179;28;20508;-78
2022/10/11 00:22:37;;;;;;;2.97;1.15;;;10.60;99.90;;;;;;5017408;28;20041;-79
2022/10/11 00:25:05;;;;;;;4.40;1.23;;;10.60;99.90;;;;;;5025552;28;20025;-79
2022/10/11 00:27:30;;;;;;;3.90;1.00;;;10.40;99.90;;;;;;5026251;28;20021;-79
2022/10/11 00:29:56;;;;;;;1.73;0.82;;;10.40;99.90;;;;;;5018946;28;20472;-79
2022/10/11 00:32:21;;;;;;;3.22;0.90;;;10.40;99.90;;;;;;5028171;28;20515;-78
2022/10/11 00:34:47;;;;;;;5.45;1.10;;;10.40;99.90;;;;;;5021790;28;20057;-78
2022/10/11 00:37:12;;;;;;;2.90;1.13;;;10.40;99.90;;;;;;5027411;28;20114;-80
2022/10/11 00:39:38;;;;;;;1.15;0.90;;;10.30;99.90;;;;;;5018564;28;20132;-79
2022/10/11 00:42:03;;;;;;;2.45;1.10;;;10.30;99.90;;;;;;5026239;28;20025;-80
2022/10/11 00:44:32;;;;;;;4.45;0.88;;;10.20;99.90;;;;;;5015130;28;20380;-79
2022/10/11 00:47:05;;;;;;;2.67;0.93;;;10.20;99.90;;;;;;5023498;28;20021;-80
2022/10/11 00:49:38;;;;;;;5.53;0.88;;;10.00;99.90;;;;;;5024063;28;20028;-79
2022/10/11 00:52:28;;;;;;;0.88;0.88;;;9.90;99.90;;;;;;5027387;28;20036;-79
2022/10/11 00:54:55;;;;;;;4.95;0.85;;;9.90;99.90;;;;;;5018372;28;20028;-79
2022/10/11 00:57:25;;;;;;;2.38;0.80;;;9.90;99.90;;;;;;5024715;28;20040;-80
2022/10/11 00:59:53;;;;;;;3.10;0.90;;;9.90;99.90;;;;;;5025300;28;20038;-79
2022/10/11 01:02:19;;;;;;;1.85;0.80;;;9.80;99.90;;;;;;5019851;28;20462;-79
2022/10/11 01:04:46;;;;;;;5.35;1.00;;;9.80;99.90;;;;;;5023789;28;20033;-80
2022/10/11 01:07:12;;;;;;;2.15;0.80;;;9.70;99.90;;;;;;5028638;28;20091;-80
2022/10/11 01:09:37;;;;;;;2.05;0.73;;;9.70;99.90;;;;;;5017585;28;20051;-79
2022/10/11 01:12:11;;;;;;;1.77;0.85;;;9.80;99.90;;;;;;5024863;28;20108;-79
2022/10/11 01:15:10;;;;;;;4.40;1.13;;;9.80;99.90;;;;;;5015260;28;20306;-79
2022/10/11 01:17:47;;;;;;;1.95;0.90;;;9.80;99.90;;;;;;5020664;28;20500;-79
2022/10/11 01:20:22;;;;;;;3.30;1.13;;;9.70;99.90;;;;;;5025879;28;20048;-82
2022/10/11 01:23:15;;;;;;;2.42;1.08;;;9.70;99.90;;;;;;5023546;28;20029;-79
2022/10/11 01:26:11;;;;;;;4.00;1.08;;;9.70;99.90;;;;;;5023422;28;20116;-80
2022/10/11 01:29:09;;;;;;;2.75;1.00;;;9.70;99.90;;;;;;5023683;28;20041;-81
2022/10/11 01:31:55;;;;;;;5.53;0.98;;;9.60;99.90;;;;;;5025814;28;20037;-78
2022/10/11 01:34:41;;;;;;;3.22;0.80;;;9.60;99.90;;;;;;5017546;28;20021;-81
2022/10/11 01:37:34;;;;;;;7.10;0.80;;;9.60;99.90;;;;;;5025302;28;20653;-79
2022/10/11 01:40:09;;;;;;;2.70;1.10;;;9.60;99.90;;;;;;5024394;28;20034;-79
2022/10/11 01:42:38;;;;;;;2.45;0.90;;;9.50;99.90;;;;;;5025850;28;20029;-79
2022/10/11 01:45:07;;;;;;;2.88;1.15;;;9.40;99.90;;;;;;5024701;28;20419;-80
2022/10/11 01:47:32;;;;;;;2.53;1.45;;;9.40;99.90;;;;;;5027834;28;20018;-80
2022/10/11 01:50:00;;;;;;;1.25;0.90;;;9.30;99.90;;;;;;5026544;28;20087;-79
2022/10/11 01:52:31;;;;;;;3.13;0.90;;;9.30;99.90;;;;;;5015801;28;20476;-79
2022/10/11 01:55:24;;;;;;;1.23;0.82;;;9.30;99.90;;;;;;5017228;28;20041;-80
2022/10/11 01:58:05;;;;;;;5.22;1.20;;;9.20;99.90;;;;;;5025417;28;20107;-79
2022/10/11 02:00:42;;;;;;;8.98;1.65;;;9.30;99.90;;;;;;5024895;28;20026;-79
2022/10/11 02:03:26;;;;;;;6.90;0.55;;;9.20;99.90;;;;;;5018666;28;20033;-80
2022/10/11 02:06:15;;;;;;;7.03;0.82;;;9.10;99.90;;;;;;5027000;28;20116;-79
2022/10/11 02:09:13;;;;;;;5.47;1.15;;;9.10;99.90;;;;;;5026590;28;20495;-80
2022/10/11 02:11:39;;;;;;;2.70;0.77;;;9.10;99.90;;;;;;5014653;28;20053;-79
2022/10/11 02:14:26;;;;;;;2.22;0.80;;;9.00;99.90;;;;;;5014757;28;20469;-79
2022/10/11 02:16:56;;;;;;;5.40;0.90;;;9.00;99.90;;;;;;5019057;28;20041;-79
2022/10/11 02:19:27;;;;;;;4.47;1.30;;;9.00;99.90;;;;;;5022804;28;20037;-79
2022/10/11 02:21:58;;;;;;;6.75;1.27;;;8.90;99.90;;;;;;5023944;28;20049;-80
2022/10/11 02:24:29;;;;;;;4.27;1.00;;;8.90;99.90;;;;;;5017278;28;20037;-79
2022/10/11 02:26:57;;;;;;;4.10;0.93;;;8.90;99.90;;;;;;5019016;28;20697;-79
2022/10/11 02:29:26;;;;;;;1.75;1.00;;;8.80;99.90;;;;;;5025322;28;20037;-79
2022/10/11 02:31:54;;;;;;;3.70;1.35;;;8.90;99.90;;;;;;5025314;28;20450;-80
2022/10/11 02:34:24;;;;;;;1.90;0.60;;;8.90;99.90;;;;;;5025736;28;20029;-79
2022/10/11 02:37:04;;;;;;;3.73;0.70;;;8.70;99.90;;;;;;5024087;28;20436;-79
2022/10/11 02:39:47;;;;;;;4.45;1.13;;;8.90;99.90;;;;;;5023651;28;20045;-79
2022/10/11 02:42:17;;;;;;;4.25;1.13;;;8.90;99.90;;;;;;5022880;28;20025;-79
2022/10/11 02:44:49;;;;;;;1.25;0.73;;;8.70;99.90;;;;;;5019974;28;20075;-79
2022/10/11 02:47:15;;;;;;;0.88;0.80;;;8.70;99.90;;;;;;5020646;28;20026;-80
2022/10/11 02:49:41;;;;;;;3.92;0.80;;;8.50;99.90;;;;;;5016843;28;20029;-80
2022/10/11 02:52:06;;;;;;;2.05;0.60;;;8.50;99.90;;;;;;5025978;28;20523;-80
2022/10/11 02:54:32;;;;;;;9.55;1.63;;;8.50;99.90;;;;;;5024033;28;20022;-80
2022/10/11 02:56:58;;;;;;;1.02;0.47;;;8.30;99.90;;;;;;5022782;28;20034;-81
2022/10/11 02:59:23;;;;;;;2.45;0.77;;;8.40;99.90;;;;;;5025597;28;20048;-80
2022/10/11 03:01:49;;;;;;;7.20;1.00;;;8.40;99.90;;;;;;5022055;28;20026;-80
2022/10/11 03:04:14;;;;;;;2.42;1.10;;;8.50;99.90;;;;;;5015899;28;20085;-80
2022/10/11 03:06:40;;;;;;;4.05;1.00;;;8.50;99.90;;;;;;5016447;28;20472;-79
2022/10/11 03:09:05;;;;;;;6.53;1.10;;;8.40;99.90;;;;;;5026314;28;20100;-79
2022/10/11 03:11:31;;;;;;;3.10;0.75;;;8.30;99.90;;;;;;5026010;28;20504;-78
2022/10/11 03:13:56;;;;;;;3.28;0.80;;;8.40;99.90;;;;;;5019956;28;20552;-79
2022/10/11 03:16:22;;;;;;;2.22;1.08;;;8.30;99.90;;;;;;5016197;28;20612;-79
2022/10/11 03:18:47;;;;;;;2.03;1.52;;;8.20;99.90;;;;;;5020325;28;20049;-78
2022/10/11 03:21:13;;;;;;;3.10;1.00;;;8.10;99.90;;;;;;5022605;28;20112;-79
2022/10/11 03:23:38;;;;;;;5.65;1.08;;;8.20;99.90;;;;;;5023588;28;20053;-79
2022/10/11 03:26:04;;;;;;;6.55;1.05;;;8.10;99.90;;;;;;5023036;28;20380;-79
2022/10/11 03:28:30;;;;;;;4.18;0.93;;;8.10;99.90;;;;;;5014476;28;20038;-79
2022/10/11 03:30:56;;;;;;;2.28;1.00;;;8.10;99.90;;;;;;5025160;28;20080;-80
2022/10/11 03:33:21;;;;;;;2.53;0.93;;;8.10;99.90;;;;;;5025440;28;20021;-79
2022/10/11 03:35:47;;;;;;;2.70;0.80;;;8.10;99.90;;;;;;5023192;28;20036;-79
2022/10/11 03:38:18;;;;;;;2.80;1.10;;;8.20;99.90;;;;;;5025559;28;20122;-79
2022/10/11 03:40:44;;;;;;;4.45;1.00;;;8.20;99.90;;;;;;5023098;28;20640;-79
2022/10/11 03:43:10;;;;;;;2.33;1.08;;;8.30;99.90;;;;;;5026302;28;20030;-80
2022/10/11 03:45:35;;;;;;;7.75;0.93;;;8.20;99.90;;;;;;5021777;28;20053;-78
2022/10/11 03:48:01;;;;;;;7.32;1.10;;;8.30;99.90;;;;;;5023221;28;20411;-81
2022/10/11 03:50:27;;;;;;;7.82;1.17;;;8.30;99.90;;;;;;5024889;28;20045;-80
2022/10/11 03:52:52;;;;;;;3.03;1.05;;;8.30;99.90;;;;;;5025483;28;20177;-80
2022/10/11 03:55:18;;;;;;;5.40;0.90;;;8.20;99.90;;;;;;5014939;28;20033;-79
2022/10/11 03:57:43;;;;;;;7.60;1.15;;;8.20;99.90;;;;;;5024413;28;20029;-79
2022/10/11 04:00:09;;;;;;;2.35;1.48;;;8.10;99.90;;;;;;5025566;28;20350;-80
2022/10/11 04:02:35;;;;;;;5.32;1.27;;;8.10;99.90;;;;;;5025975;28;20061;-79
2022/10/11 04:05:01;;;;;;;2.10;1.38;;;8.10;99.90;;;;;;5022706;28;20026;-79
2022/10/11 04:07:26;;;;;;;2.20;0.77;;;8.10;99.90;;;;;;5022803;28;20388;-79
2022/10/11 04:09:52;;;;;;;1.45;0.90;;;8.10;99.90;;;;;;5025776;28;20033;-79
2022/10/11 04:12:17;;;;;;;4.03;1.40;;;8.10;99.90;;;;;;5021313;28;20029;-80
2022/10/11 04:14:43;;;;;;;8.65;1.35;;;8.10;99.90;;;;;;5018737;28;20389;-81
2022/10/11 04:17:08;;;;;;;6.20;0.98;;;8.00;99.90;;;;;;5023244;28;20404;-80
2022/10/11 04:19:36;;;;;;;1.13;0.93;;;8.00;99.90;;;;;;5015392;28;20045;-80
2022/10/11 04:22:02;;;;;;;7.45;1.00;;;8.00;99.90;;;;;;5017322;28;20025;-89
2022/10/11 04:24:27;;;;;;;4.72;1.25;;;8.00;99.90;;;;;;5018540;28;20105;-83
2022/10/11 04:26:53;;;;;;;2.75;1.58;;;7.90;99.90;;;;;;5012257;28;20113;-79
2022/10/11 04:29:18;;;;;;;1.70;1.02;;;7.90;99.90;;;;;;5022541;28;20040;-81
2022/10/11 04:31:44;;;;;;;2.05;1.20;;;7.80;99.90;;;;;;5019648;28;20408;-80
2022/10/11 04:34:09;;;;;;;5.32;1.27;;;7.80;99.90;;;;;;5020606;28;20041;-82
2022/10/11 04:36:35;;;;;;;5.03;1.10;;;7.90;99.90;;;;;;5026077;28;20468;-78
2022/10/11 04:39:00;;;;;;;1.20;0.88;;;8.00;99.90;;;;;;5025543;28;20025;-78
2022/10/11 04:41:27;;;;;;;2.92;1.35;;;8.00;99.90;;;;;;5019472;28;20034;-77
2022/10/11 04:43:53;;;;;;;2.47;1.17;;;8.00;99.90;;;;;;5020793;28;20033;-77
2022/10/11 04:46:18;;;;;;;3.95;1.13;;;8.00;99.90;;;;;;5019881;28;20423;-76
2022/10/11 04:48:44;;;;;;;7.40;1.98;;;8.00;99.90;;;;;;5022511;28;20496;-79
2022/10/11 04:51:09;;;;;;;9.73;1.60;;;8.00;99.90;;;;;;5023200;28;20380;-80
2022/10/11 04:53:35;;;;;;;7.72;2.13;;;8.00;99.90;;;;;;5028922;28;20063;-79
2022/10/11 04:56:04;;;;;;;4.40;1.13;;;8.00;99.90;;;;;;5028974;28;20112;-79
2022/10/11 04:58:31;;;;;;;9.82;2.30;;;8.00;99.90;;;;;;5026857;28;20113;-77
2022/10/11 05:00:57;;;;;;;2.35;1.30;;;8.00;99.90;;;;;;5023461;28;20049;-80
2022/10/11 05:03:23;;;;;;;2.45;1.20;;;8.00;99.90;;;;;;5027760;28;20048;-80
2022/10/11 05:05:49;;;;;;;5.00;1.35;;;8.00;99.90;;;;;;5030266;28;20030;-79
2022/10/11 05:08:15;;;;;;;7.00;1.88;;;8.00;99.90;;;;;;5014895;28;20037;-81
2022/10/11 05:10:40;;;;;;;2.90;1.65;;;8.00;99.90;;;;;;5027547;28;20480;-80
2022/10/11 05:13:06;;;;;;;6.97;1.80;;;7.90;99.90;;;;;;5013741;28;20501;-81
2022/10/11 05:15:32;;;;;;;2.80;1.77;;;8.00;99.90;;;;;;5016156;28;20358;-85
2022/10/11 05:17:57;;;;;;;5.88;1.50;;;8.00;99.90;;;;;;5022754;28;20045;-86
2022/10/11 05:20:23;;;;;;;7.72;1.83;;;8.00;99.90;;;;;;5020180;28;20088;-79
2022/10/11 05:22:48;;;;;;;4.30;2.40;;;8.00;99.90;;;;;;5024738;28;20520;-82
2022/10/11 05:25:14;;;;;;;5.68;1.63;;;8.10;99.90;;;;;;5013259;28;20041;-83
2022/10/11 05:27:39;;;;;;;5.95;1.83;;;8.10;99.90;;;;;;5016873;28;20087;-83
2022/10/11 05:30:05;;;;;;;6.45;1.92;;;8.20;99.90;;;;;;5030030;28;20018;-84
2022/10/11 05:32:31;;;;;;;3.88;1.63;;;8.20;99.90;;;;;;5025238;28;20026;-82
2022/10/11 05:34:56;;;;;;;13.68;2.33;;;8.20;99.90;;;;;;5023745;28;20033;-82
2022/10/11 05:37:22;;;;;;;4.82;2.25;;;8.40;99.90;;;;;;5019312;28;20068;-80
2022/10/11 05:39:52;;;;;;;5.65;1.75;;;8.30;99.90;;;;;;5026179;28;20033;-80
2022/10/11 05:42:17;;;;;;;1.75;1.20;;;8.20;99.90;;;;;;5019070;28;20021;-80
2022/10/11 05:44:42;;;;;;;3.55;2.15;;;8.10;99.90;;;;;;5013456;28;20113;-80
2022/10/11 05:47:08;;;;;;;6.55;1.77;;;8.10;99.90;;;;;;5016909;28;20026;-79
2022/10/11 05:49:33;;;;;;;5.97;1.90;;;8.10;99.90;;;;;;5010058;28;20477;-79
2022/10/11 05:51:59;;;;;;;5.55;1.60;;;8.10;99.90;;;;;;5018788;28;20060;-79
2022/10/11 05:54:27;;;;;;;9.68;2.03;;;8.10;99.90;;;;;;5027910;28;20630;-79
2022/10/11 05:56:53;;;;;;;12.73;2.05;;;8.00;99.90;;;;;;5028972;28;20029;-79
2022/10/11 05:59:18;;;;;;;4.78;1.80;;;8.10;99.90;;;;;;5026289;28;20036;-80
2022/10/11 06:01:43;;;;;;;4.78;1.77;;;8.10;99.90;;;;;;5027317;28;20025;-79
2022/10/11 06:04:10;;;;;;;5.60;2.22;;;8.10;99.90;;;;;;5026833;28;20022;-79
2022/10/11 06:06:36;;;;;;;4.60;2.15;;;8.10;99.90;;;;;;5026317;28;20158;-81
2022/10/11 06:09:01;;;;;;;3.92;2.15;;;8.20;99.90;;;;;;5016067;28;20123;-80
2022/10/11 06:11:27;;;;;;;5.88;3.50;;;8.30;99.90;;;;;;5015490;28;20038;-79
2022/10/11 06:13:54;;;;;;;3.97;1.92;;;8.30;99.90;;;;;;5024948;28;20610;-81
2022/10/11 06:16:20;;;;;;;7.00;2.35;;;8.30;99.90;;;;;;5026085;28;20091;-81
2022/10/11 06:18:45;;;;;;;5.18;2.50;;;8.40;99.90;;;;;;5017944;28;20042;-80
2022/10/11 06:21:12;;;;;;;5.25;2.70;;;8.50;99.90;;;;;;5024459;28;20026;-81
2022/10/11 06:23:38;;;;;;;4.97;2.70;;;8.40;99.90;;;;;;5022379;28;20040;-81
2022/10/11 06:26:06;;;;;;;7.35;3.00;;;8.50;99.90;;;;;;5012002;28;20488;-79
2022/10/11 06:28:32;;;;;;;8.07;3.10;;;8.60;99.90;;;;;;5017081;28;20037;-78
2022/10/11 06:30:57;;;;;;;10.02;3.08;;;8.70;99.90;;;;;;5009881;28;20515;-78
2022/10/11 06:33:23;;;;;;;9.73;3.20;;;8.70;99.90;;;;;;5024516;28;20052;-77
2022/10/11 06:35:55;;;;;;;5.00;2.63;;;8.80;99.90;;;;;;5008438;28;20092;-79
2022/10/11 06:38:20;;;;;;;4.05;3.13;;;8.80;99.90;;;;;;5013223;28;20117;-78
2022/10/11 06:40:46;;;;;;;7.45;3.55;;;8.80;99.90;;;;;;5021561;28;20117;-79
2022/10/11 06:43:11;;;;;;;22.90;4.43;;;8.90;99.90;;;;;;5016123;28;20050;-78
2022/10/11 06:45:36;;;;;;;6.68;1.70;;;8.80;99.90;;;;;;5018029;28;20036;-78
2022/10/11 06:48:04;;;;;;;6.32;2.05;;;8.80;99.90;;;;;;5018091;28;20620;-78
2022/10/11 06:50:30;;;;;;;4.60;2.15;;;8.80;99.90;;;;;;5009922;28;20030;-80
2022/10/11 06:52:55;;;;;;;6.30;2.33;;;8.90;99.90;;;;;;5017248;28;20380;-79
2022/10/11 06:55:21;;;;;;;3.72;2.33;;;9.00;99.90;;;;;;5020716;28;20032;-81
2022/10/11 06:57:46;;;;;;;4.55;1.98;;;9.00;99.90;;;;;;5014454;28;20540;-77
2022/10/11 07:00:12;;;;;;;7.10;2.00;;;9.00;99.90;;;;;;5025221;28;20021;-78
2022/10/11 07:02:38;;;;;;;5.82;2.10;;;9.10;99.90;;;;;;5026940;28;20030;-77
2022/10/11 07:05:04;;;;;;;5.90;2.53;;;9.10;99.90;;;;;;5022396;28;20014;-78
2022/10/11 07:07:29;;;;;;;5.50;1.90;;;9.10;99.90;;;;;;5018380;28;20112;-78
2022/10/11 07:09:54;;;;;;;3.25;1.88;;;9.20;99.90;;;;;;5024199;28;20216;-85
2022/10/11 07:12:20;;;;;;;2.67;1.73;;;9.20;99.90;;;;;;5017362;28;20080;-76
2022/10/11 07:14:45;;;;;;;8.77;2.00;;;9.20;99.90;;;;;;5017717;28;20109;-78
2022/10/11 07:17:11;;;;;;;5.65;1.95;;;9.30;99.90;;;;;;5032922;28;20088;-76
2022/10/11 07:19:36;;;;;;;2.67;1.80;;;9.30;99.90;;;;;;5027134;28;20150;-79
2022/10/11 07:22:02;;;;;;;9.30;2.28;;;9.40;99.90;;;;;;5020932;28;20057;-77
2022/10/11 07:24:27;;;;;;;6.45;2.08;;;9.50;99.90;;;;;;5008019;28;20029;-77
2022/10/11 07:26:53;;;;;;;7.70;2.13;;;9.50;99.90;;;;;;5010646;28;20582;-77
2022/10/11 07:29:18;;;;;;;8.68;1.92;;;9.50;99.90;;;;;;5017510;28;20034;-76
2022/10/11 07:31:44;;;;;;;3.67;1.45;;;9.50;99.90;;;;;;5026841;28;20072;-77
2022/10/11 07:34:09;;;;;;;9.40;2.03;;;9.60;99.90;;;;;;5021011;28;20145;-86
2022/10/11 07:36:35;;;;;;;6.60;2.30;;;9.70;99.90;;;;;;5019096;28;20032;-78
2022/10/11 07:39:03;;;;;;;4.85;1.83;;;9.70;99.90;;;;;;5023995;28;20536;-75
2022/10/11 07:41:29;;;;;;;4.55;2.00;;;9.70;99.90;;;;;;5015122;28;20493;-78
2022/10/11 07:43:54;;;;;;;9.80;2.30;;;9.70;99.90;;;;;;5023751;28;20032;-78
2022/10/11 07:46:20;;;;;;;8.73;2.28;;;9.80;99.90;;;;;;5021973;28;20056;-80
2022/10/11 07:48:46;;;;;;;5.40;2.22;;;9.80;99.90;;;;;;5023979;28;20484;-85
2022/10/11 07:51:14;;;;;;;5.97;2.15;;;9.80;99.90;;;;;;5026512;28;20496;-84
2022/10/11 07:53:44;;;;;;;2.42;1.90;;;9.90;99.90;;;;;;5020847;28;20033;-83
2022/10/11 07:56:12;;;;;;;6.78;2.03;;;10.00;99.90;;;;;;5022759;28;20034;-84
2022/10/11 07:58:39;;;;;;;4.05;2.42;;;10.00;99.90;;;;;;5013986;28;20108;-85
2022/10/11 08:01:05;;;;;;;5.05;2.42;;;10.10;99.90;;;;;;5028502;28;20112;-86
2022/10/11 08:03:30;;;;;;;4.25;2.17;;;10.10;99.90;;;;;;5028125;28;20112;-87
2022/10/11 08:06:01;;;;;;;2.17;1.85;;;10.10;99.90;;;;;;5021161;28;20212;-85
2022/10/11 08:08:27;;;;;;;5.65;2.95;;;10.20;99.90;;;;;;5020088;28;20685;-85
2022/10/11 08:10:52;;;;;;;2.47;2.20;;;10.30;99.90;;;;;;5019801;28;20037;-86
2022/10/11 08:13:18;;;;;;;4.85;1.85;;;10.40;99.90;;;;;;5019526;28;20029;-83
2022/10/11 08:15:43;;;;;;;9.25;2.75;;;10.40;99.90;;;;;;5018642;28;20432;-85
2022/10/11 08:18:09;;;;;;;5.35;2.60;;;10.50;99.90;;;;;;5015634;28;20215;-85
2022/10/11 08:20:37;;;;;;;4.60;2.05;;;10.50;99.90;;;;;;5022407;28;20017;-83
2022/10/11 08:23:03;;;;;;;6.40;2.35;;;10.50;99.90;;;;;;5022602;28;20534;-84
2022/10/11 08:25:28;;;;;;;5.10;2.42;;;10.60;99.90;;;;;;5024739;28;20340;-84
2022/10/11 08:27:54;;;;;;;5.07;2.45;;;10.70;99.90;;;;;;5028505;28;20021;-84
2022/10/11 08:30:19;;;;;;;7.35;2.55;;;10.90;99.90;;;;;;5021654;28;20027;-85
2022/10/11 08:32:45;;;;;;;4.63;1.98;;;11.00;99.90;;;;;;5024701;28;20033;-84
2022/10/11 08:35:10;;;;;;;6.57;2.00;;;11.10;99.90;;;;;;5024614;28;20087;-85
2022/10/11 08:37:36;;;;;;;7.70;1.83;;;11.10;99.90;;;;;;5012120;28;20112;-86
2022/10/11 08:40:02;;;;;;;6.53;1.70;;;11.20;99.90;;;;;;5021595;28;20033;-85
2022/10/11 08:42:37;;;;;;;4.47;2.08;;;11.30;99.90;;;;;;5021902;28;20057;-86
2022/10/11 08:45:07;;;;;;;11.27;1.67;;;11.40;99.90;;;;;;5017077;28;20089;-85
2022/10/11 08:47:38;;;;;;;3.25;1.50;;;11.50;99.90;;;;;;5022156;28;20418;-85
2022/10/11 08:50:07;;;;;;;6.38;1.60;;;11.70;99.90;;;;;;5014361;28;20030;-85
2022/10/11 08:52:38;;;;;;;2.35;1.17;;;11.80;99.90;;;;;;5023045;28;20044;-86
2022/10/11 08:55:06;;;;;;;5.43;1.50;;;12.00;99.90;;;;;;5024621;28;20044;-85
2022/10/11 08:57:35;;;;;;;8.13;1.80;;;12.10;99.90;;;;;;5024274;28;20132;-85
2022/10/11 09:00:12;;;;;;;4.60;1.70;;;12.10;99.90;;;;;;5020342;28;20041;-86
2022/10/11 09:02:56;;;;;;;5.97;1.42;;;12.10;99.90;;;;;;5024099;28;20463;-84
2022/10/11 09:05:26;;;;;;;5.72;1.48;;;12.30;99.90;;;;;;5015931;28;20033;-84
2022/10/11 09:08:21;;;;;;;3.88;1.30;;;12.30;99.90;;;;;;5022851;28;20025;-84
2022/10/11 09:10:59;;;;;;;4.63;1.30;;;12.40;99.90;;;;;;5016718;28;20108;-84
2022/10/11 09:13:58;;;;;;;5.65;1.17;;;12.50;99.90;;;;;;5016193;28;20033;-82
2022/10/11 09:16:50;;;;;;;5.13;1.38;;;12.70;99.90;;;;;;5017507;28;20520;-85
2022/10/11 09:19:35;;;;;;;9.52;1.77;;;12.80;99.90;;;;;;5022806;28;20083;-84
2022/10/11 09:22:18;;;;;;;2.88;1.70;;;12.90;99.90;;;;;;5019761;28;20034;-85
2022/10/11 09:25:06;;;;;;;4.95;1.63;;;13.00;99.90;;;;;;5013038;28;20072;-85
2022/10/11 09:27:50;;;;;;;6.18;1.73;;;13.10;99.90;;;;;;5029894;28;20030;-85
2022/10/11 09:30:17;;;;;;;3.13;1.48;;;13.30;99.90;;;;;;5020548;28;20056;-85
2022/10/11 09:32:48;;;;;;;11.20;2.65;;;13.40;99.90;;;;;;5022757;28;20404;-84
2022/10/11 09:35:19;;;;;;;3.25;1.30;;;13.30;99.90;;;;;;5012051;28;20044;-85
2022/10/11 09:38:05;;;;;;;3.78;1.30;;;13.50;99.90;;;;;;5023018;28;20052;-86
2022/10/11 09:40:57;;;;;;;3.33;1.55;;;13.40;99.90;;;;;;5016072;28;20539;-84
2022/10/11 09:43:23;;;;;;;2.63;1.00;;;13.50;99.90;;;;;;5019656;28;20028;-85
2022/10/11 09:45:49;;;;;;;2.85;1.20;;;13.80;99.90;;;;;;5017935;28;20029;-84
2022/10/11 09:48:20;;;;;;;3.05;1.20;;;13.80;99.90;;;;;;5029155;28;20033;-84
2022/10/11 09:50:48;;;;;;;3.17;1.33;;;13.90;99.90;;;;;;5023481;28;20500;-85
2022/10/11 09:53:13;;;;;;;5.07;1.13;;;14.10;99.90;;;;;;5025765;28;20026;-85
2022/10/11 09:55:42;;;;;;;4.40;1.98;;;14.20;99.90;;;;;;5021278;28;20022;-85
2022/10/11 09:58:29;;;;;;;5.78;1.40;;;14.10;99.90;;;;;;5018099;28;20038;-84
2022/10/11 10:00:58;;;;;;;4.63;1.13;;;14.20;99.90;;;;;;5023995;28;20067;-84
2022/10/11 10:03:30;;;;;;;6.60;1.42;;;14.30;99.90;;;;;;5016679;28;20052;-82
2022/10/11 10:06:20;;;;;;;2.45;1.08;;;14.40;99.90;;;;;;5018235;28;20025;-81
2022/10/11 10:08:46;;;;;;;3.50;1.10;;;14.50;99.90;;;;;;5015321;28;20030;-81
2022/10/11 10:11:13;;;;;;;3.95;1.17;;;14.80;99.90;;;;;;5018887;28;20032;-81
2022/10/11 10:13:53;;;;;;;4.30;1.50;;;14.80;99.90;;;;;;5017793;28;20026;-81
2022/10/11 10:16:30;;;;;;;5.18;1.25;;;14.90;99.90;;;;;;5025879;28;20575;-81
2022/10/11 10:19:22;;;;;;;4.55;1.20;;;15.10;99.90;;;;;;5025166;28;20501;-80
2022/10/11 10:21:50;;;;;;;6.22;1.65;;;15.50;99.90;;;;;;5008994;28;20030;-82
2022/10/11 10:24:20;;;;;;;3.40;0.82;;;15.30;97.70;;;;;;5009586;28;20504;-81
2022/10/11 10:27:17;;;;;;;5.32;1.15;;;15.30;98.30;;;;;;5026590;28;20083;-80
2022/10/11 10:30:01;;;;;;;3.58;1.23;;;15.60;97.10;;;;;;5028501;28;20037;-80
2022/10/11 10:32:36;;;;;;;7.00;1.48;;;15.90;96.20;;;;;;5028758;28;20068;-81
2022/10/11 10:35:36;;;;;;;3.80;1.30;;;16.10;94.80;;;;;;5026763;28;20026;-81
2022/10/11 10:38:05;;;;;;;10.02;1.20;;;16.80;93.50;;;;;;5013165;28;20124;-79
2022/10/11 10:40:52;;;;;;;5.35;1.77;;;17.10;92.60;;;;;;5016862;28;20087;-80
2022/10/11 10:43:24;;;;;;;2.17;0.90;;;18.00;91.00;;;;;;5018879;28;20034;-81
2022/10/11 10:46:04;;;;;;;4.75;0.80;;;17.70;89.00;;;;;;5028117;28;20028;-80
2022/10/11 10:49:04;;;;;;;1.52;0.90;;;18.70;86.70;;;;;;5028330;28;20026;-80
2022/10/11 10:52:04;;;;;;;2.63;0.90;;;18.20;80.50;;;;;;5023579;28;20045;-80
2022/10/11 10:54:50;;;;;;;5.40;1.30;;;20.60;75.70;;;;;;5018683;28;20093;-80
2022/10/11 10:57:30;;;;;;;2.10;0.80;;;20.30;69.00;;;;;;5016452;28;20038;-80
2022/10/11 11:00:18;;;;;;;4.70;1.02;;;19.90;69.50;;;;;;5025821;28;20064;-80
2022/10/11 11:02:55;;;;;;;1.60;0.90;;;20.20;66.40;;;;;;5015648;28;20029;-80
2022/10/11 11:05:44;;;;;;;4.53;1.02;;;21.90;61.70;;;;;;5028295;28;20049;-80
2022/10/11 11:08:36;;;;;;;2.30;0.77;;;23.50;56.50;;;;;;5023083;28;20026;-82
2022/10/11 11:11:21;;;;;;;3.85;1.08;;;21.80;59.60;;;;;;5026171;28;20602;-79
2022/10/11 11:14:10;;;;;;;2.63;0.98;;;20.40;63.00;;;;;;5023588;28;20112;-79
2022/10/11 11:17:14;;;;;;;3.28;1.17;;;18.40;70.90;;;;;;5008800;28;20481;-77
2022/10/11 11:19:57;;;;;;;3.53;0.57;;;17.10;76.70;;;;;;5019549;28;20052;-77
2022/10/11 11:22:36;;;;;;;4.10;0.70;;;20.20;67.80;;;;;;5028014;28;20018;-78
2022/10/11 11:25:24;;;;;;;3.00;0.80;;;23.50;56.70;;;;;;5023653;28;20030;-79
2022/10/11 11:28:05;;;;;;;2.13;0.93;;;27.30;49.20;;;;;;5023255;28;20480;-80
2022/10/11 11:30:41;;;;;;;;;;;27.80;46.50;;;;;;5026930;28;20029;-79
2022/10/11 11:33:37;;;;;;;0.85;0.70;;;26.80;47.10;;;;;;5028338;28;19909;-80
2022/10/11 11:36:16;;;;;;;3.40;0.88;;;27.90;42.80;;;;;;5030907;28;20029;-78
2022/10/11 11:38:54;;;;;;;4.80;1.00;;;28.40;45.00;;;;;;5029729;28;20033;-78
2022/10/11 11:41:22;;;;;;;3.50;0.80;;;24.10;48.30;;;;;;5021116;28;20026;-80
2022/10/11 11:44:17;;;;;;;4.30;0.90;;;20.30;58.00;;;;;;5026442;28;20041;-78
2022/10/11 11:46:59;;;;;;;2.00;0.82;;;18.10;64.80;;;;;;5018032;28;20053;-79
2022/10/11 11:49:32;;;;;;;4.50;0.90;;;16.60;71.10;;;;;;5031662;28;20026;-79
2022/10/11 11:51:59;;;;;;;7.88;1.00;;;16.40;73.50;;;;;;5031513;28;20025;-79
2022/10/11 11:54:35;;;;;;;4.70;0.90;;;18.70;70.30;;;;;;5030598;28;20079;-79
2022/10/11 11:57:14;;;;;;;2.50;0.68;;;23.20;54.40;;;;;;5017910;28;20120;-80
2022/10/11 11:59:49;;;;;;;2.75;0.68;;;24.90;48.90;;;;;;5025261;28;20044;-79
2022/10/11 12:02:28;;;;;;;2.63;0.80;;;27.40;46.20;;;;;;5025455;28;20152;-80
2022/10/11 12:04:55;;;;;;;1.10;0.73;;;28.30;43.70;;;;;;5029506;28;20032;-79
2022/10/11 12:07:24;;;;;;;1.90;0.75;;;29.30;41.40;;;;;;5028644;28;20030;-80
2022/10/11 12:09:53;;;;;;;2.22;0.82;;;27.20;43.60;;;;;;5030037;28;20060;-80
2022/10/11 12:12:32;;;;;;;3.03;1.15;;;24.60;47.20;;;;;;5028160;28;20025;-79
2022/10/11 12:15:19;;;;;;;1.35;0.80;;;20.30;55.40;;;;;;5030295;28;20041;-78
2022/10/11 12:17:54;;;;;;;1.50;0.75;;;18.00;62.60;;;;;;5029061;28;20392;-78
2022/10/11 12:20:30;;;;;;;2.35;0.88;;;16.90;68.30;;;;;;5022318;28;20034;-79
2022/10/11 12:22:59;;;;;;;2.80;0.70;;;16.60;70.40;;;;;;5024612;28;20041;-79
2022/10/11 12:25:24;;;;;;;4.38;0.63;;;16.20;72.10;;;;;;5020605;28;20453;-79
2022/10/11 12:27:56;;;;;;;2.55;1.05;;;15.90;73.80;;;;;;5015365;28;20053;-79
2022/10/11 12:30:47;;;;;;;6.22;0.82;;;15.80;76.10;;;;;;5030817;28;20052;-79
2022/10/11 12:33:29;;;;;;;5.40;0.80;;;19.20;66.20;;;;;;5021641;28;20052;-79
2022/10/11 12:35:54;;;;;;;4.38;1.30;;;23.90;56.10;;;;;;5031177;28;20018;-79
2022/10/11 12:38:33;;;;;;;2.65;0.73;;;26.40;47.80;;;;;;5029452;28;20480;-78
2022/10/11 12:41:18;;;;;;;2.10;0.80;;;23.80;48.90;;;;;;5031346;28;20017;-79
2022/10/11 12:43:47;;;;;;;3.50;1.10;;;24.70;47.70;;;;;;5029292;28;20041;-79
2022/10/11 12:46:27;;;;;;;1.67;0.85;;;24.60;47.60;;;;;;5024222;28;20052;-78
2022/10/11 12:49:25;;;;;;;2.15;1.20;;;23.60;48.70;;;;;;5025731;28;20095;-78
2022/10/11 12:51:59;;;;;;;1.75;0.68;;;23.80;48.40;;;;;;5025054;28;20029;-79
2022/10/11 12:55:08;;;;;;;0.95;0.60;;;23.50;49.20;;;;;;5010670;28;20076;-80
2022/10/11 12:57:37;;;;;;;7.03;1.10;;;22.00;51.70;;;;;;5001644;28;20080;-79
2022/10/11 13:00:27;;;;;;;3.53;0.80;;;23.60;48.70;;;;;;5023065;28;20022;-78
2022/10/11 13:02:59;;;;;;;1.98;0.60;;;28.50;42.40;;;;;;5022549;28;20018;-79
2022/10/11 13:05:30;;;;;;;1.42;0.65;;;29.00;38.90;;;;;;5022719;28;20032;-80
2022/10/11 13:08:00;;;;;;;2.80;1.07;;;30.40;39.40;;;;;;5016590;28;20022;-80
2022/10/11 13:10:42;;;;;;;2.70;0.77;;;31.40;36.30;;;;;;5014510;28;20037;-80
2022/10/11 13:13:15;;;;;;;;;;;32.50;34.90;;;;;;5014543;28;20091;-81
2022/10/11 13:15:43;;;;;;;4.30;0.90;;;32.90;34.60;;;;;;5028940;28;20260;-80